createdAt,value
2019-04-05T00:01:29.716Z,11.10
2019-04-05T00:04:00.196Z,11.10
2019-04-05T00:06:34.274Z,11.10
2019-04-05T00:09:06.742Z,11.10
2019-04-05T00:11:37.312Z,11.10
2019-04-05T00:14:09.547Z,11.10
2019-04-05T00:16:41.401Z,11.00
2019-04-05T00:19:12.040Z,11.00
2019-04-05T00:21:44.310Z,11.00
2019-04-05T00:24:14.731Z,11.10
2019-04-05T00:26:50.782Z,11.10
2019-04-05T00:29:21.335Z,11.10
2019-04-05T00:32:00.633Z,11.10
2019-04-05T00:34:31.063Z,11.00
2019-04-05T00:37:07.100Z,11.00
2019-04-05T00:39:37.725Z,11.00
2019-04-05T00:42:08.547Z,11.10
2019-04-05T00:44:38.965Z,11.10
2019-04-05T00:47:10.130Z,11.10
2019-04-05T00:49:40.803Z,11.10
2019-04-05T00:52:11.309Z,11.10
2019-04-05T00:54:41.784Z,11.20
2019-04-05T00:57:16.567Z,11.20
2019-04-05T00:59:48.220Z,11.10
2019-04-05T01:02:23.048Z,11.10
2019-04-05T01:04:53.856Z,11.10
2019-04-05T01:07:24.823Z,11.10
2019-04-05T01:09:55.342Z,11.10
2019-04-05T01:12:32.085Z,11.10
2019-04-05T01:15:40.860Z,11.10
2019-04-05T01:18:03.873Z,11.10
2019-04-05T01:20:42.551Z,11.20
2019-04-05T01:23:17.891Z,11.20
2019-04-05T01:26:04.205Z,11.10
2019-04-05T01:28:35.600Z,11.10
2019-04-05T01:31:07.123Z,11.20
2019-04-05T01:33:37.778Z,11.20
2019-04-05T01:36:08.246Z,11.10
2019-04-05T01:38:40.075Z,11.10
2019-04-05T01:41:10.869Z,11.10
2019-04-05T01:43:41.377Z,11.10
2019-04-05T01:46:15.769Z,11.10
2019-04-05T01:48:50.800Z,11.10
2019-04-05T01:51:25.351Z,11.10
2019-04-05T01:53:55.981Z,11.10
2019-04-05T01:56:26.466Z,11.10
2019-04-05T01:58:56.892Z,11.10
2019-04-05T02:01:27.876Z,11.10
2019-04-05T02:03:58.276Z,11.10
2019-04-05T02:06:30.407Z,11.10
2019-04-05T02:09:00.850Z,11.10
2019-04-05T02:11:31.727Z,11.10
2019-04-05T02:14:04.494Z,11.10
2019-04-05T02:16:34.996Z,11.10
2019-04-05T02:19:11.421Z,11.10
2019-04-05T02:21:50.545Z,11.20
2019-04-05T02:24:21.343Z,11.20
2019-04-05T02:26:51.927Z,11.20
2019-04-05T02:29:26.755Z,11.20
2019-04-05T02:31:58.623Z,11.20
2019-04-05T02:34:29.050Z,11.20
2019-04-05T02:37:03.802Z,11.30
2019-04-05T02:39:34.295Z,11.30
2019-04-05T02:42:05.668Z,11.30
2019-04-05T02:44:39.566Z,11.30
2019-04-05T02:47:13.224Z,11.30
2019-04-05T02:49:46.563Z,11.30
2019-04-05T02:52:21.703Z,11.30
2019-04-05T02:54:55.375Z,11.30
2019-04-05T02:57:27.736Z,11.30
2019-04-05T02:59:59.017Z,11.30
2019-04-05T03:02:30.227Z,11.30
2019-04-05T03:05:00.773Z,11.30
2019-04-05T03:07:31.626Z,11.30
2019-04-05T03:10:02.924Z,11.20
2019-04-05T03:12:36.950Z,11.30
2019-04-05T03:15:08.456Z,11.30
2019-04-05T03:17:39.874Z,11.30
2019-04-05T03:20:10.327Z,11.30
2019-04-05T03:22:40.997Z,11.20
2019-04-05T03:25:11.571Z,11.20
2019-04-05T03:27:41.976Z,11.20
2019-04-05T03:30:12.730Z,11.20
2019-04-05T03:32:45.894Z,11.20
2019-04-05T03:35:18.695Z,11.20
2019-04-05T03:37:53.058Z,11.10
2019-04-05T03:40:24.587Z,11.10
2019-04-05T03:43:04.692Z,11.10
2019-04-05T03:45:40.821Z,11.10
2019-04-05T03:48:11.554Z,11.10
2019-04-05T03:50:45.379Z,11.10
2019-04-05T03:53:16.446Z,11.10
2019-04-05T03:55:50.231Z,11.10
2019-04-05T03:58:21.837Z,11.20
2019-04-05T04:00:52.453Z,11.10
2019-04-05T04:03:24.702Z,11.10
2019-04-05T04:05:55.506Z,11.20
2019-04-05T04:08:26.228Z,11.20
2019-04-05T04:10:57.133Z,11.20
2019-04-05T04:13:30.797Z,11.10
2019-04-05T04:16:03.994Z,11.10
2019-04-05T04:18:38.057Z,11.10
2019-04-05T04:22:09.965Z,11.10
2019-04-05T04:24:42.827Z,11.00
2019-04-05T04:27:19.149Z,11.00
2019-04-05T04:29:49.766Z,10.90
2019-04-05T04:32:21.095Z,10.90
2019-04-05T04:35:03.601Z,10.90
2019-04-05T04:37:35.212Z,10.90
2019-04-05T04:40:13.616Z,10.90
2019-04-05T04:42:44.505Z,10.90
2019-04-05T04:45:15.489Z,10.90
2019-04-05T04:47:46.670Z,10.80
2019-04-05T04:50:19.309Z,10.90
2019-04-05T04:52:50.790Z,10.90
2019-04-05T04:55:21.952Z,10.80
2019-04-05T04:57:52.393Z,10.90
2019-04-05T05:00:23.059Z,10.90
2019-04-05T05:02:53.660Z,10.90
2019-04-05T05:05:24.162Z,10.90
2019-04-05T05:07:54.547Z,10.90
2019-04-05T05:10:25.198Z,10.90
2019-04-05T05:12:56.397Z,10.90
2019-04-05T05:15:27.371Z,10.90
2019-04-05T05:17:59.116Z,10.90
2019-04-05T05:20:30.067Z,10.90
2019-04-05T05:23:01.077Z,10.90
2019-04-05T05:25:31.991Z,10.90
2019-04-05T05:28:03.035Z,10.90
2019-04-05T05:30:34.093Z,10.90
2019-04-05T05:33:07.261Z,10.90
2019-04-05T05:35:37.612Z,11.00
2019-04-05T05:38:08.101Z,10.90
2019-04-05T05:40:38.983Z,10.90
2019-04-05T05:43:09.408Z,10.90
2019-04-05T05:45:40.054Z,10.90
2019-04-05T05:48:10.878Z,10.90
2019-04-05T05:50:41.649Z,10.90
2019-04-05T05:53:13.113Z,10.90
2019-04-05T05:55:43.906Z,10.90
2019-04-05T05:58:14.699Z,10.90
2019-04-05T06:00:45.424Z,10.90
2019-04-05T06:03:16.732Z,10.90
2019-04-05T06:05:47.235Z,10.80
2019-04-05T06:08:17.558Z,10.90
2019-04-05T06:10:47.982Z,10.90
2019-04-05T06:13:18.394Z,10.90
2019-04-05T06:15:48.744Z,10.90
2019-04-05T06:18:19.467Z,10.90
2019-04-05T06:20:49.854Z,10.90
2019-04-05T06:23:32.722Z,10.90
2019-04-05T06:25:52.346Z,10.90
2019-04-05T06:28:23.143Z,10.90
2019-04-05T06:30:53.446Z,10.90
2019-04-05T06:33:31.437Z,10.90
2019-04-05T06:35:55.992Z,10.90
2019-04-05T06:38:26.396Z,10.90
2019-04-05T06:40:56.818Z,10.80
2019-04-05T06:43:27.867Z,10.80
2019-04-05T06:45:58.292Z,10.80
2019-04-05T06:48:30.263Z,10.70
2019-04-05T06:51:00.687Z,10.70
2019-04-05T06:53:31.721Z,10.60
2019-04-05T06:56:02.529Z,10.60
2019-04-05T06:58:32.980Z,10.50
2019-04-05T07:01:03.423Z,10.50
2019-04-05T07:03:35.538Z,10.50
2019-04-05T07:06:06.035Z,10.50
2019-04-05T07:08:36.533Z,10.60
2019-04-05T07:11:07.026Z,10.60
2019-04-05T07:13:41.449Z,10.50
2019-04-05T07:16:12.085Z,10.60
2019-04-05T07:18:42.725Z,10.50
2019-04-05T07:21:13.261Z,10.60
2019-04-05T07:23:43.988Z,10.60
2019-04-05T07:26:14.499Z,10.60
2019-04-05T07:28:45.178Z,10.60
2019-04-05T07:31:16.114Z,10.70
2019-04-05T07:33:47.048Z,10.70
2019-04-05T07:36:17.871Z,10.70
2019-04-05T07:38:49.465Z,10.70
2019-04-05T07:41:21.950Z,10.70
2019-04-05T07:43:54.991Z,10.80
2019-04-05T07:46:25.388Z,10.90
2019-04-05T07:48:56.564Z,10.90
2019-04-05T07:51:26.931Z,11.00
2019-04-05T07:53:57.746Z,11.00
2019-04-05T07:56:28.178Z,11.20
2019-04-05T07:58:58.568Z,11.10
2019-04-05T08:01:29.145Z,11.20
2019-04-05T08:04:02.754Z,11.10
2019-04-05T08:06:36.707Z,11.20
2019-04-05T08:09:15.634Z,11.20
2019-04-05T08:11:50.008Z,11.20
2019-04-05T08:16:53.314Z,11.20
2019-04-05T08:19:25.988Z,11.20
2019-04-05T08:21:56.388Z,11.30
2019-04-05T08:24:26.753Z,11.20
2019-04-05T08:26:59.879Z,11.40
2019-04-05T08:29:30.222Z,11.50
2019-04-05T08:32:13.600Z,11.50
2019-04-05T08:34:37.158Z,11.60
2019-04-05T08:37:07.938Z,11.60
2019-04-05T08:39:38.995Z,11.50
2019-04-05T08:44:41.055Z,11.80
2019-04-05T09:09:55.642Z,12.20
2019-04-05T09:12:34.753Z,12.60
2019-04-05T09:15:09.879Z,12.60
2019-04-05T09:20:14.559Z,12.60
2019-04-05T09:22:49.314Z,12.20
2019-04-05T09:27:52.826Z,12.70
2019-04-05T09:30:23.749Z,12.40
2019-04-05T09:32:54.440Z,12.40
2019-04-05T09:35:25.102Z,12.40
2019-04-05T09:37:55.489Z,12.70
2019-04-05T09:40:26.287Z,12.50
2019-04-05T09:42:56.690Z,12.60
2019-04-05T09:45:27.286Z,12.60
2019-04-05T09:47:57.745Z,12.70
2019-04-05T09:50:28.180Z,12.70
2019-04-05T09:52:58.523Z,12.80
2019-04-05T09:55:30.087Z,12.80
2019-04-05T09:58:33.349Z,12.90
2019-04-05T10:01:07.207Z,13.00
2019-04-05T10:03:42.584Z,13.00
2019-04-05T10:06:14.220Z,13.10
2019-04-05T10:08:45.787Z,13.10
2019-04-05T10:11:16.499Z,13.20
2019-04-05T10:13:46.888Z,13.40
2019-04-05T10:16:17.476Z,13.50
2019-04-05T10:18:47.827Z,13.70
2019-04-05T10:21:19.263Z,13.70
2019-04-05T10:23:49.606Z,13.60
2019-04-05T10:26:20.019Z,13.60
2019-04-05T10:28:50.368Z,13.90
2019-04-05T10:31:20.817Z,13.70
2019-04-05T10:33:52.132Z,13.70
2019-04-05T10:36:23.655Z,13.80
2019-04-05T10:38:54.022Z,13.90
2019-04-05T10:41:24.511Z,13.90
2019-04-05T10:43:55.103Z,13.90
2019-04-05T10:46:25.536Z,14.00
2019-04-05T10:48:58.195Z,14.00
2019-04-05T10:51:44.881Z,14.20
2019-04-05T10:54:21.950Z,14.90
2019-04-05T10:56:52.609Z,14.00
2019-04-05T10:59:23.029Z,13.90
2019-04-05T11:01:53.402Z,14.00
2019-04-05T11:04:23.933Z,14.00
2019-04-05T11:06:54.450Z,14.10
2019-04-05T11:09:25.044Z,14.20
2019-04-05T11:11:55.571Z,14.30
2019-04-05T11:14:25.936Z,14.40
2019-04-05T11:16:58.695Z,14.60
2019-04-05T11:19:30.273Z,14.60
2019-04-05T11:22:00.546Z,14.70
2019-04-05T11:24:30.935Z,14.80
2019-04-05T11:27:01.411Z,14.80
2019-04-05T11:29:33.986Z,14.80
2019-04-05T11:32:04.849Z,14.70
2019-04-05T11:34:35.201Z,14.60
2019-04-05T11:37:05.659Z,14.70
2019-04-05T11:39:38.304Z,14.90
2019-04-05T11:42:12.124Z,15.10
2019-04-05T11:44:45.288Z,15.10
2019-04-05T11:47:19.026Z,15.00
2019-04-05T11:49:51.136Z,14.90
2019-04-05T11:52:21.454Z,15.00
2019-04-05T11:54:52.599Z,15.10
2019-04-05T11:57:23.420Z,15.10
2019-04-05T11:59:55.568Z,15.10
2019-04-05T12:02:46.877Z,15.20
2019-04-05T12:05:20.369Z,15.30
2019-04-05T12:07:51.375Z,15.30
2019-04-05T12:10:22.382Z,15.30
2019-04-05T12:12:52.847Z,15.50
2019-04-05T12:15:29.087Z,15.50
2019-04-05T12:17:59.555Z,15.40
2019-04-05T12:20:32.787Z,15.50
2019-04-05T12:23:02.246Z,15.50
2019-04-05T12:25:33.749Z,15.60
2019-04-05T12:28:10.096Z,15.80
2019-04-05T12:30:38.057Z,16.00
2019-04-05T12:33:14.367Z,16.30
2019-04-05T12:35:44.781Z,16.30
2019-04-05T12:38:31.471Z,16.30
2019-04-05T12:41:04.878Z,16.30
2019-04-05T12:43:35.831Z,16.30
2019-04-05T12:46:06.655Z,16.40
2019-04-05T12:48:37.141Z,16.40
2019-04-05T12:51:07.684Z,16.40
2019-04-05T12:53:40.043Z,16.30
2019-04-05T12:56:14.833Z,16.00
2019-04-05T12:58:45.322Z,15.70
2019-04-05T13:01:15.691Z,15.50
2019-04-05T13:03:46.149Z,15.30
2019-04-05T13:06:19.824Z,15.10
2019-04-05T13:08:56.755Z,15.00
2019-04-05T13:11:29.263Z,14.80
2019-04-05T13:13:59.891Z,14.80
2019-04-05T13:16:30.302Z,14.70
2019-04-05T13:19:50.252Z,14.80
2019-04-05T13:22:22.570Z,14.90
2019-04-05T13:24:52.190Z,15.10
2019-04-05T13:27:22.532Z,15.10
2019-04-05T13:29:53.406Z,15.10
2019-04-05T13:32:24.066Z,15.10
2019-04-05T13:34:55.856Z,15.20
2019-04-05T13:37:28.530Z,15.30
2019-04-05T13:40:00.012Z,15.40
2019-04-05T13:42:31.947Z,15.40
2019-04-05T13:45:03.438Z,15.50
2019-04-05T13:47:42.061Z,15.60
2019-04-05T13:50:12.516Z,15.50
2019-04-05T13:52:42.920Z,15.60
2019-04-05T13:55:13.543Z,15.50
2019-04-05T13:57:44.071Z,15.50
2019-04-05T14:00:18.315Z,15.40
2019-04-05T14:02:50.742Z,15.40
2019-04-05T14:05:22.806Z,15.40
2019-04-05T14:08:09.144Z,15.40
2019-04-05T14:10:25.421Z,15.50
2019-04-05T14:12:55.875Z,15.50
2019-04-05T14:15:31.297Z,15.50
2019-04-05T14:18:00.935Z,15.60
2019-04-05T14:20:37.251Z,15.60
2019-04-05T14:23:08.817Z,15.60
2019-04-05T14:26:47.126Z,15.60
2019-04-05T14:29:18.878Z,15.50
2019-04-05T14:35:09.480Z,15.30
2019-04-05T14:37:46.688Z,15.40
2019-04-05T14:40:36.351Z,15.40
2019-04-05T14:43:06.980Z,15.40
2019-04-05T14:45:37.360Z,15.40
2019-04-05T14:48:14.195Z,15.30
2019-04-05T14:50:46.589Z,15.40
2019-04-05T14:53:19.197Z,15.40
2019-04-05T14:55:54.641Z,15.30
2019-04-05T14:58:25.819Z,15.30
2019-04-05T15:00:58.304Z,15.40
2019-04-05T15:03:28.828Z,15.60
2019-04-05T15:05:59.240Z,15.70
2019-04-05T15:08:29.663Z,15.80
2019-04-05T15:11:00.130Z,15.70
2019-04-05T15:13:32.441Z,15.60
2019-04-05T15:16:02.868Z,15.50
2019-04-05T15:18:33.294Z,15.40
2019-04-05T15:21:07.598Z,15.40
2019-04-05T15:23:41.264Z,15.30
2019-04-05T15:26:12.066Z,15.30
2019-04-05T15:28:42.517Z,15.30
2019-04-05T15:31:17.780Z,15.30
2019-04-05T15:33:49.034Z,15.40
2019-04-05T15:36:25.732Z,15.40
2019-04-05T15:39:03.848Z,15.40
2019-04-05T15:41:34.517Z,15.40
2019-04-05T15:44:11.060Z,15.40
2019-04-05T15:46:44.061Z,15.40
2019-04-05T15:49:14.599Z,15.30
2019-04-05T15:51:45.120Z,15.30
2019-04-05T15:54:15.945Z,15.30
2019-04-05T15:56:47.786Z,15.20
2019-04-05T15:59:21.921Z,15.20
2019-04-05T16:01:52.755Z,15.20
2019-04-05T16:04:26.471Z,15.20
2019-04-05T16:06:57.425Z,15.20
2019-04-05T16:09:27.907Z,15.20
2019-04-05T16:11:58.331Z,15.10
2019-04-05T16:14:33.906Z,15.10
2019-04-05T16:17:04.572Z,15.10
2019-04-05T16:19:35.395Z,15.00
2019-04-05T16:22:05.959Z,15.00
2019-04-05T16:24:42.729Z,15.00
2019-04-05T16:27:15.091Z,15.00
2019-04-05T16:29:48.767Z,15.00
2019-04-05T16:32:19.302Z,14.90
2019-04-05T16:34:49.891Z,14.90
2019-04-05T16:37:20.461Z,14.90
2019-04-05T16:39:53.318Z,14.90
2019-04-05T16:42:24.044Z,14.90
2019-04-05T16:44:54.848Z,14.80
2019-04-05T16:47:25.151Z,14.80
2019-04-05T16:49:55.481Z,14.70
2019-04-05T16:52:25.787Z,14.70
2019-04-05T16:55:03.524Z,14.70
2019-04-05T16:57:33.984Z,14.70
2019-04-05T17:00:05.099Z,14.60
2019-04-05T17:02:37.275Z,14.60
2019-04-05T17:05:08.230Z,14.60
2019-04-05T17:08:16.198Z,14.50
2019-04-05T17:10:51.609Z,14.50
2019-04-05T17:13:45.751Z,14.40
2019-04-05T17:16:30.392Z,14.40
2019-04-05T17:22:39.899Z,14.30
2019-04-05T17:25:26.090Z,14.30
2019-04-05T17:28:48.527Z,14.20
2019-04-05T17:31:49.302Z,14.20
2019-04-05T17:34:44.870Z,14.10
2019-04-05T17:37:20.652Z,14.10
2019-04-05T17:40:03.668Z,14.00
2019-04-05T17:42:35.023Z,14.00
2019-04-05T17:45:08.660Z,14.00
2019-04-05T17:47:45.102Z,13.90
2019-04-05T17:50:33.768Z,13.90
2019-04-05T17:53:16.148Z,13.90
2019-04-05T17:55:59.183Z,13.90
2019-04-05T17:58:32.404Z,13.80
2019-04-05T18:01:15.377Z,13.80
2019-04-05T18:03:46.326Z,13.70
2019-04-05T18:06:18.844Z,13.70
2019-04-05T18:08:52.403Z,13.60
2019-04-05T18:11:26.353Z,13.60
2019-04-05T18:13:59.396Z,13.60
2019-04-05T18:16:38.896Z,13.60
2019-04-05T18:19:14.793Z,13.50
2019-04-05T18:21:46.809Z,13.50
2019-04-05T18:24:17.337Z,13.50
2019-04-05T18:26:49.176Z,13.50
2019-04-05T18:29:22.870Z,13.50
2019-04-05T18:31:56.571Z,13.40
2019-04-05T18:34:27.221Z,13.40
2019-04-05T18:36:57.714Z,13.40
2019-04-05T18:39:43.087Z,13.40
2019-04-05T18:42:16.552Z,13.30
2019-04-05T18:44:48.991Z,13.30
2019-04-05T18:47:41.717Z,13.30
2019-04-05T18:50:14.515Z,13.30
2019-04-05T18:52:52.228Z,13.20
2019-04-05T18:55:26.102Z,13.20
2019-04-05T18:58:01.094Z,13.20
2019-04-05T19:00:31.829Z,13.20
2019-04-05T19:03:19.871Z,13.10
2019-04-05T19:05:51.888Z,13.10
2019-04-05T19:08:23.214Z,13.10
2019-04-05T19:10:57.783Z,13.10
2019-04-05T19:13:28.265Z,13.10
2019-04-05T19:16:01.494Z,13.00
2019-04-05T19:18:41.563Z,13.00
2019-04-05T19:21:09.767Z,13.00
2019-04-05T19:23:50.681Z,12.90
2019-04-05T19:26:15.418Z,12.90
2019-04-05T19:28:46.364Z,12.80
2019-04-05T19:50:27.399Z,12.40
2019-04-05T19:53:05.594Z,12.40
2019-04-05T19:55:45.689Z,12.30
2019-04-05T19:58:22.074Z,12.30
2019-04-05T20:01:21.448Z,12.20
2019-04-05T20:04:08.094Z,12.10
2019-04-05T20:07:27.006Z,12.10
2019-04-05T20:10:02.906Z,12.00
2019-04-05T20:12:43.582Z,11.90
2019-04-05T20:15:16.542Z,11.80
2019-04-05T20:17:46.787Z,11.80
2019-04-05T20:20:17.550Z,11.70
2019-04-05T20:22:51.345Z,11.70
2019-04-05T20:25:22.588Z,11.70
2019-04-05T20:27:57.288Z,11.60
2019-04-05T20:30:28.122Z,11.60
2019-04-05T20:32:58.596Z,11.60
2019-04-05T20:35:29.300Z,11.60
2019-04-05T20:37:59.639Z,11.60
2019-04-05T20:40:44.043Z,11.50
2019-04-05T20:43:15.234Z,11.50
2019-04-05T20:45:45.689Z,11.50
2019-04-05T20:48:17.157Z,11.50
2019-04-05T20:50:51.870Z,11.40
2019-04-05T20:53:25.477Z,11.40
2019-04-05T20:55:56.622Z,11.30
2019-04-05T20:58:31.235Z,11.30
2019-04-05T21:01:04.056Z,11.20
2019-04-05T21:03:35.253Z,11.20
2019-04-05T21:06:53.201Z,11.20
2019-04-05T21:09:40.913Z,11.10
2019-04-05T21:12:16.948Z,11.10
2019-04-05T21:14:49.568Z,11.00
2019-04-05T21:17:24.198Z,11.00
2019-04-05T21:20:16.148Z,10.90
2019-04-05T21:22:47.204Z,10.90
2019-04-05T21:25:17.814Z,10.90
2019-04-05T21:27:51.358Z,10.80
2019-04-05T21:30:22.264Z,10.70
2019-04-05T21:32:52.695Z,10.70
2019-04-05T21:35:35.006Z,10.70
2019-04-05T21:38:07.977Z,10.60
2019-04-05T21:40:38.675Z,10.60
2019-04-05T21:43:10.233Z,10.60
2019-04-05T21:45:42.427Z,10.60
2019-04-05T21:48:15.266Z,10.60
2019-04-05T21:50:46.407Z,10.50
2019-04-05T21:53:17.015Z,10.50
2019-04-05T21:55:47.451Z,10.50
2019-04-05T21:58:17.908Z,10.50
2019-04-05T22:00:50.531Z,10.50
2019-04-05T22:03:21.175Z,10.50
2019-04-05T22:05:51.781Z,10.50
2019-04-05T22:08:22.266Z,10.50
2019-04-05T22:10:53.098Z,10.50
2019-04-05T22:13:23.492Z,10.50
2019-04-05T22:15:53.897Z,10.60
2019-04-05T22:18:34.694Z,10.60
2019-04-05T22:21:09.539Z,10.60
2019-04-05T22:23:53.239Z,10.50
2019-04-05T22:26:24.736Z,10.50
2019-04-05T22:28:55.737Z,10.50
2019-04-05T22:31:48.542Z,10.50
2019-04-05T22:34:31.599Z,10.50
2019-04-05T22:37:08.348Z,10.40
2019-04-05T22:39:39.455Z,10.40
2019-04-05T22:42:10.004Z,10.40
2019-04-05T22:44:43.088Z,10.40
2019-04-05T22:47:15.865Z,10.40
2019-04-05T22:49:46.380Z,10.40
2019-04-05T22:52:17.364Z,10.30
2019-04-05T22:54:47.914Z,10.40
2019-04-05T22:57:18.494Z,10.30
2019-04-05T22:59:49.337Z,10.30
2019-04-05T23:02:19.762Z,10.30
2019-04-05T23:04:50.271Z,10.30
2019-04-05T23:07:22.034Z,10.30
2019-04-05T23:09:53.702Z,10.30
2019-04-05T23:12:24.168Z,10.30
2019-04-05T23:14:54.983Z,10.30
2019-04-05T23:17:25.364Z,10.20
2019-04-05T23:19:55.771Z,10.20
2019-04-05T23:22:26.231Z,10.20
2019-04-05T23:24:56.684Z,10.20
2019-04-05T23:27:28.094Z,10.10
2019-04-05T23:29:58.485Z,10.10
2019-04-05T23:32:29.332Z,10.10
2019-04-05T23:35:00.175Z,10.10
2019-04-05T23:37:30.699Z,10.00
2019-04-05T23:40:01.149Z,10.00
2019-04-05T23:42:31.571Z,10.00
2019-04-05T23:45:02.204Z,9.90
2019-04-05T23:47:32.608Z,9.90
2019-04-05T23:50:05.012Z,9.90
2019-04-05T23:52:35.652Z,9.90
2019-04-05T23:55:06.550Z,9.90
2019-04-05T23:57:37.337Z,9.90
